createdAt,value
2023-03-21T00:04:25.567Z,69.77
2023-03-21T00:09:28.690Z,73.73
2023-03-21T00:14:38.152Z,77.17
2023-03-21T00:19:41.329Z,80.68
2023-03-21T00:24:43.234Z,81.94
2023-03-21T00:29:45.333Z,81.23
2023-03-21T00:35:01.497Z,81.51
2023-03-21T00:40:23.288Z,81.26
2023-03-21T00:45:28.681Z,81.35
2023-03-21T00:50:34.407Z,80.26
2023-03-21T00:55:39.065Z,78.89
2023-03-21T01:00:41.472Z,76.89
2023-03-21T01:06:05.189Z,76.01
2023-03-21T01:11:17.328Z,74.77
2023-03-21T01:16:19.852Z,73.80
2023-03-21T01:21:22.183Z,73.18
2023-03-21T01:26:24.223Z,72.44
2023-03-21T01:31:26.129Z,71.68
2023-03-21T01:36:28.595Z,70.92
2023-03-21T01:41:43.499Z,70.25
2023-03-21T01:47:07.660Z,70.18
2023-03-21T01:52:35.822Z,69.64
2023-03-21T01:57:58.472Z,69.01
2023-03-21T02:03:16.976Z,68.74
2023-03-21T02:08:39.269Z,68.23
2023-03-21T02:13:45.867Z,68.00
2023-03-21T02:19:20.105Z,67.93
2023-03-21T02:24:51.376Z,67.96
2023-03-21T02:30:26.514Z,67.85
2023-03-21T02:35:54.505Z,67.81
2023-03-21T02:41:18.064Z,67.84
2023-03-21T02:46:49.170Z,67.81
2023-03-21T02:52:12.177Z,67.98
2023-03-21T02:57:19.406Z,67.79
2023-03-21T03:02:27.255Z,67.99
2023-03-21T03:07:56.881Z,68.09
2023-03-21T03:13:09.758Z,68.32
2023-03-21T03:18:24.145Z,68.31
2023-03-21T03:23:43.516Z,68.35
2023-03-21T03:28:51.641Z,68.19
2023-03-21T03:33:58.741Z,67.89
2023-03-21T03:39:04.777Z,68.15
2023-03-21T03:44:07.293Z,68.91
2023-03-21T03:49:39.720Z,69.11
2023-03-21T03:54:46.076Z,68.60
2023-03-21T03:59:48.292Z,68.85
2023-03-21T04:05:09.546Z,69.23
2023-03-21T04:10:11.648Z,68.89
2023-03-21T04:15:16.324Z,68.73
2023-03-21T04:20:35.625Z,68.47
2023-03-21T04:25:47.585Z,68.53
2023-03-21T04:31:03.788Z,68.42
2023-03-21T04:36:26.345Z,68.55
2023-03-21T04:41:31.051Z,69.32
2023-03-21T04:46:34.036Z,68.79
2023-03-21T04:51:37.466Z,69.07
2023-03-21T04:56:39.954Z,68.78
2023-03-21T05:06:30.466Z,68.85
2023-03-21T05:11:33.474Z,68.86
2023-03-21T05:16:36.577Z,69.14
2023-03-21T05:21:41.984Z,68.97
2023-03-21T05:26:50.702Z,69.12
2023-03-21T05:31:53.744Z,68.73
2023-03-21T05:36:56.332Z,68.72
2023-03-21T05:41:59.961Z,68.91
2023-03-21T05:47:02.851Z,68.98
2023-03-21T05:52:11.880Z,68.98
2023-03-21T05:57:14.612Z,68.89
2023-03-21T06:02:34.110Z,68.72
2023-03-21T06:07:38.187Z,68.24
2023-03-21T06:12:43.064Z,68.18
2023-03-21T06:17:59.483Z,68.57
2023-03-21T06:23:01.655Z,68.59
2023-03-21T06:28:04.408Z,67.96
2023-03-21T06:33:08.004Z,68.77
2023-03-21T06:38:10.862Z,70.22
2023-03-21T06:43:13.927Z,71.43
2023-03-21T06:48:16.189Z,71.65
2023-03-21T06:53:29.925Z,71.50
2023-03-21T06:58:50.478Z,72.86
2023-03-21T07:04:21.109Z,73.95
2023-03-21T07:09:27.996Z,74.59
2023-03-21T07:14:34.610Z,75.26
2023-03-21T07:19:36.683Z,74.50
2023-03-21T07:24:38.385Z,73.55
2023-03-21T07:29:40.845Z,73.38
2023-03-21T07:34:42.626Z,73.72
2023-03-21T07:39:44.383Z,72.90
2023-03-21T07:44:46.499Z,71.92
2023-03-21T07:49:48.268Z,71.67
2023-03-21T07:54:49.946Z,71.54
2023-03-21T07:59:51.784Z,71.42
2023-03-21T08:04:53.508Z,71.39
2023-03-21T08:09:55.814Z,70.92
2023-03-21T08:15:00.598Z,69.35
2023-03-21T08:20:04.735Z,70.00
2023-03-21T08:25:08.577Z,70.61
2023-03-21T08:30:12.427Z,69.34
2023-03-21T08:35:16.791Z,69.29
2023-03-21T08:40:19.006Z,69.04
2023-03-21T08:45:20.975Z,70.39
2023-03-21T08:50:26.625Z,71.00
2023-03-21T08:55:28.469Z,71.09
2023-03-21T09:00:30.312Z,71.31
2023-03-21T09:05:32.080Z,71.60
2023-03-21T09:10:34.697Z,71.19
2023-03-21T09:15:36.685Z,70.76
2023-03-21T09:20:40.424Z,70.66
2023-03-21T09:25:45.151Z,70.77
2023-03-21T09:30:46.957Z,70.93
2023-03-21T09:35:51.747Z,71.33
2023-03-21T09:41:17.224Z,70.52
2023-03-21T09:46:31.944Z,71.18
2023-03-21T09:51:42.221Z,70.57
2023-03-21T09:56:45.489Z,70.29
2023-03-21T10:01:49.614Z,70.50
2023-03-21T10:06:59.814Z,70.16
2023-03-21T10:12:14.520Z,69.54
2023-03-21T10:17:26.376Z,69.64
2023-03-21T10:22:28.106Z,69.59
2023-03-21T10:27:30.711Z,68.35
2023-03-21T10:32:32.577Z,67.27
2023-03-21T10:37:36.342Z,67.45
2023-03-21T10:42:38.109Z,67.79
2023-03-21T10:47:40.103Z,66.71
2023-03-21T10:53:00.550Z,64.89
2023-03-21T10:58:08.743Z,62.81
2023-03-21T11:03:23.799Z,62.23
2023-03-21T11:08:27.398Z,61.32
2023-03-21T11:13:41.091Z,60.95
2023-03-21T11:18:45.567Z,61.20
2023-03-21T11:23:51.840Z,61.79
2023-03-21T11:28:55.306Z,62.94
2023-03-21T11:33:57.203Z,64.13
2023-03-21T11:39:12.881Z,65.21
2023-03-21T11:44:33.658Z,64.89
2023-03-21T11:49:35.499Z,63.73
2023-03-21T11:54:47.292Z,65.96
2023-03-21T11:59:57.356Z,67.26
2023-03-21T12:05:21.792Z,68.04
2023-03-21T12:10:49.158Z,67.46
2023-03-21T12:16:27.744Z,66.72
2023-03-21T12:22:03.249Z,64.55
2023-03-21T12:27:37.023Z,64.21
2023-03-21T12:32:44.668Z,64.28
2023-03-21T12:38:01.940Z,63.21
2023-03-21T12:43:21.872Z,62.58
2023-03-21T12:48:47.825Z,62.23
2023-03-21T12:54:15.823Z,62.06
2023-03-21T12:59:25.270Z,61.45
2023-03-21T13:04:49.861Z,60.26
2023-03-21T13:09:55.148Z,60.35
2023-03-21T13:15:23.179Z,62.57
2023-03-21T13:20:44.077Z,59.87
2023-03-21T13:25:51.528Z,60.91
2023-03-21T13:31:14.048Z,62.67
2023-03-21T13:36:25.854Z,61.64
2023-03-21T13:41:35.220Z,60.40
2023-03-21T13:46:53.452Z,59.73
2023-03-21T13:51:58.448Z,60.84
2023-03-21T13:57:04.724Z,61.22
2023-03-21T14:02:15.586Z,61.58
2023-03-21T14:07:27.187Z,61.78
2023-03-21T14:12:34.804Z,59.46
2023-03-21T14:17:36.854Z,60.81
2023-03-21T14:22:42.134Z,62.92
2023-03-21T14:27:48.433Z,60.66
2023-03-21T14:32:50.761Z,59.46
2023-03-21T14:37:52.563Z,59.79
2023-03-21T14:42:55.433Z,61.81
2023-03-21T14:48:05.667Z,62.78
2023-03-21T14:53:11.781Z,62.11
2023-03-21T14:58:17.688Z,61.11
2023-03-21T15:03:22.264Z,60.84
2023-03-21T15:08:26.430Z,60.59
2023-03-21T15:13:32.048Z,59.65
2023-03-21T15:18:37.572Z,61.05
2023-03-21T15:23:48.292Z,63.16
2023-03-21T15:28:56.088Z,60.80
2023-03-21T15:33:57.989Z,60.12
2023-03-21T15:39:06.478Z,60.04
2023-03-21T15:44:08.115Z,59.76
2023-03-21T15:49:16.190Z,60.49
2023-03-21T15:54:31.366Z,61.09
2023-03-21T15:59:36.981Z,60.60
2023-03-21T16:04:55.941Z,60.15
2023-03-21T16:10:01.027Z,60.66
2023-03-21T16:15:02.985Z,60.59
2023-03-21T16:20:32.581Z,60.44
2023-03-21T16:25:35.444Z,59.71
2023-03-21T16:30:38.730Z,57.00
2023-03-21T16:35:40.742Z,62.01
2023-03-21T16:40:44.036Z,64.31
2023-03-21T16:45:45.857Z,63.82
2023-03-21T16:50:48.293Z,62.97
2023-03-21T16:55:50.353Z,62.86
2023-03-21T17:00:52.137Z,63.27
2023-03-21T17:05:53.956Z,63.44
2023-03-21T17:10:55.924Z,63.72
2023-03-21T17:15:57.821Z,64.28
2023-03-21T17:20:59.494Z,65.02
2023-03-21T17:26:02.311Z,64.81
2023-03-21T17:31:06.590Z,65.32
2023-03-21T17:36:24.519Z,65.16
2023-03-21T17:41:27.430Z,65.51
2023-03-21T17:46:34.373Z,64.76
2023-03-21T17:51:36.261Z,65.17
2023-03-21T17:56:37.975Z,65.64
2023-03-21T18:01:39.917Z,65.62
2023-03-21T18:06:41.782Z,65.79
2023-03-21T18:11:46.006Z,65.56
2023-03-21T18:16:50.684Z,65.42
2023-03-21T18:21:52.498Z,65.59
2023-03-21T18:26:54.715Z,65.87
2023-03-21T18:32:06.890Z,65.37
2023-03-21T18:37:13.144Z,64.77
2023-03-21T18:42:18.859Z,66.23
2023-03-21T18:47:23.022Z,67.05
2023-03-21T18:52:27.091Z,65.94
2023-03-21T18:57:38.227Z,66.15
2023-03-21T19:02:45.651Z,67.50
2023-03-21T19:07:49.277Z,67.62
2023-03-21T19:12:52.820Z,67.98
2023-03-21T19:18:30.693Z,67.29
2023-03-21T19:23:18.660Z,67.75
2023-03-21T19:28:20.837Z,68.13
2023-03-21T19:33:24.550Z,68.51
2023-03-21T19:38:26.484Z,68.73
2023-03-21T19:43:33.001Z,69.43
2023-03-21T19:48:38.037Z,69.74
2023-03-21T19:53:40.491Z,69.29
2023-03-21T19:58:42.363Z,68.76
2023-03-21T20:03:47.492Z,68.00
2023-03-21T20:09:27.177Z,67.23
2023-03-21T20:14:12.591Z,67.08
2023-03-21T20:19:16.273Z,67.25
2023-03-21T20:24:18.553Z,67.34
2023-03-21T20:34:44.470Z,67.21
2023-03-21T20:39:46.594Z,66.64
2023-03-21T20:44:58.312Z,67.27
2023-03-21T20:50:01.085Z,66.73
2023-03-21T20:55:03.195Z,66.40
2023-03-21T21:00:13.562Z,67.04
2023-03-21T21:05:28.391Z,66.98
2023-03-21T21:10:33.562Z,66.90
2023-03-21T21:15:35.704Z,67.15
2023-03-21T21:20:38.779Z,66.84
2023-03-21T21:25:40.791Z,66.62
2023-03-21T21:30:42.868Z,66.62
2023-03-21T21:35:48.069Z,66.62
2023-03-21T21:40:51.808Z,66.64
2023-03-21T21:45:54.199Z,67.10
2023-03-21T21:50:55.985Z,67.51
2023-03-21T21:55:57.642Z,67.77
2023-03-21T22:01:01.897Z,68.47
2023-03-21T22:06:05.019Z,69.38
2023-03-21T22:11:07.836Z,69.77
2023-03-21T22:16:14.324Z,70.49
2023-03-21T22:21:16.403Z,69.59
2023-03-21T22:26:18.213Z,70.01
2023-03-21T22:31:20.702Z,70.25
2023-03-21T22:36:22.484Z,69.79
2023-03-21T22:41:25.425Z,69.56
2023-03-21T22:46:28.086Z,70.67
2023-03-21T22:51:32.821Z,70.87
2023-03-21T22:56:34.686Z,71.37
2023-03-21T23:01:36.466Z,72.32
2023-03-21T23:06:39.019Z,73.87
2023-03-21T23:11:41.004Z,74.58
2023-03-21T23:16:45.057Z,74.71
2023-03-21T23:21:48.226Z,73.92
2023-03-21T23:26:50.422Z,73.08
2023-03-21T23:31:52.218Z,73.42
2023-03-21T23:36:53.989Z,73.05
2023-03-21T23:41:55.921Z,73.00
2023-03-21T23:46:57.691Z,74.10
2023-03-21T23:51:59.346Z,73.39
2023-03-21T23:57:01.496Z,72.42
